Time;durP1;ratioP1;P1;durP2;ratioP2;P2;SDS_P1;SDS_P2;PMS_P1;PMS_P2;Temp;Humidity;BMP_temperature;BMP_pressure;BME280_temperature;BME280_humidity;BME280_pressure;Samples;Min_cycle;Max_cycle;Signal;HPM_P1;HPM_P2
2022/03/13 00:02:04;;;;;;;7.63;6.70;;;;;;;;;;4977364;28;20212;-70
2022/03/13 00:04:29;;;;;;;8.77;6.90;;;;;;;;;;4979607;28;20195;-69
2022/03/13 00:06:56;;;;;;;8.83;6.90;;;;;;;;;;4977761;28;20349;-70
2022/03/13 00:09:22;;;;;;;9.40;6.67;;;;;;;;;;4980261;28;20548;-71
2022/03/13 00:11:51;;;;;;;8.80;5.80;;;;;;;;;;4977166;28;20214;-69
2022/03/13 00:14:19;;;;;;;8.30;7.10;;;;;;;;;;4979618;28;20179;-70
2022/03/13 00:16:45;;;;;;;7.27;5.33;;;;;;;;;;4978318;28;20192;-70
2022/03/13 00:19:10;;;;;;;7.17;5.77;;;;;;;;;;4980829;28;20202;-69
2022/03/13 00:21:35;;;;;;;10.30;5.77;;;;;;;;;;4981910;28;20573;-70
2022/03/13 00:24:01;;;;;;;8.07;6.43;;;;;;;;;;4979779;28;20270;-70
2022/03/13 00:26:26;;;;;;;8.03;7.00;;;;;;;;;;4979722;28;20223;-69
2022/03/13 00:28:51;;;;;;;6.07;5.33;;;;;;;;;;4978917;28;20183;-69
2022/03/13 00:31:16;;;;;;;9.63;6.33;;;;;;;;;;4973233;28;20560;-71
2022/03/13 00:33:42;;;;;;;7.47;6.67;;;;;;;;;;4980125;28;20183;-69
2022/03/13 00:36:07;;;;;;;7.10;5.60;;;;;;;;;;4986598;28;20215;-70
2022/03/13 00:38:32;;;;;;;6.23;5.60;;;;;;;;;;4993285;28;20206;-69
2022/03/13 00:40:58;;;;;;;6.73;5.83;;;;;;;;;;4996608;28;20200;-68
2022/03/13 00:43:25;;;;;;;8.80;6.53;;;;;;;;;;4992830;28;20183;-70
2022/03/13 00:45:50;;;;;;;9.23;6.87;;;;;;;;;;4993136;28;20186;-69
2022/03/13 00:48:16;;;;;;;7.80;6.47;;;;;;;;;;4987930;28;20208;-69
2022/03/13 00:50:41;;;;;;;8.63;6.40;;;;;;;;;;4994038;28;21327;-69
2022/03/13 00:53:07;;;;;;;9.03;6.77;;;;;;;;;;4989031;28;20176;-70
2022/03/13 00:55:32;;;;;;;9.90;6.87;;;;;;;;;;4985782;28;20596;-69
2022/03/13 00:57:58;;;;;;;8.27;7.00;;;;;;;;;;4972666;28;20274;-69
2022/03/13 01:00:23;;;;;;;10.37;6.73;;;;;;;;;;4971892;28;20662;-70
2022/03/13 01:02:49;;;;;;;8.37;6.80;;;;;;;;;;4963615;28;20207;-70
2022/03/13 01:05:21;;;;;;;8.60;6.63;;;;;;;;;;4973014;28;20996;-70
2022/03/13 01:07:46;;;;;;;8.03;6.10;;;;;;;;;;4975623;28;20241;-69
2022/03/13 01:10:11;;;;;;;9.23;5.90;;;;;;;;;;4992871;28;20708;-71
2022/03/13 01:12:36;;;;;;;10.07;6.97;;;;;;;;;;4971463;28;20214;-69
2022/03/13 01:15:02;;;;;;;8.07;6.40;;;;;;;;;;4965429;28;20221;-68
2022/03/13 01:17:28;;;;;;;7.93;6.20;;;;;;;;;;4963731;28;20363;-69
2022/03/13 01:19:53;;;;;;;8.30;6.20;;;;;;;;;;4966389;28;20191;-70
2022/03/13 01:22:18;;;;;;;6.43;5.63;;;;;;;;;;4978621;28;20280;-70
2022/03/13 01:24:44;;;;;;;6.90;5.80;;;;;;;;;;4977366;28;20278;-69
2022/03/13 01:27:10;;;;;;;10.83;5.80;;;;;;;;;;4976837;28;20728;-69
2022/03/13 01:29:35;;;;;;;8.50;6.00;;;;;;;;;;4970406;28;20191;-69
2022/03/13 01:32:00;;;;;;;6.90;5.77;;;;;;;;;;4966604;28;20205;-71
2022/03/13 01:34:36;;;;;;;10.47;6.20;;;;;;;;;;4967422;28;20314;-70
2022/03/13 01:37:07;;;;;;;7.77;5.57;;;;;;;;;;4962430;28;20183;-70
2022/03/13 01:39:32;;;;;;;6.23;5.33;;;;;;;;;;4999422;28;20175;-69
2022/03/13 01:41:58;;;;;;;8.03;6.20;;;;;;;;;;4987622;28;20657;-70
2022/03/13 01:44:23;;;;;;;6.27;4.90;;;;;;;;;;4990196;28;20179;-69
2022/03/13 01:46:48;;;;;;;5.00;4.17;;;;;;;;;;4990162;28;20224;-70
2022/03/13 01:49:13;;;;;;;5.23;4.27;;;;;;;;;;4988639;28;20788;-69
2022/03/13 01:51:39;;;;;;;5.30;4.40;;;;;;;;;;4992941;28;20207;-69
2022/03/13 01:54:06;;;;;;;7.03;4.63;;;;;;;;;;4989067;28;20183;-68
2022/03/13 01:56:33;;;;;;;4.93;4.30;;;;;;;;;;4986735;28;20518;-69
2022/03/13 01:58:58;;;;;;;6.33;4.50;;;;;;;;;;4994012;28;20187;-69
2022/03/13 02:01:25;;;;;;;6.97;3.90;;;;;;;;;;4990645;28;20734;-69
2022/03/13 02:03:50;;;;;;;4.87;4.37;;;;;;;;;;4989544;28;20200;-69
2022/03/13 02:06:16;;;;;;;5.03;4.20;;;;;;;;;;4988142;28;20207;-68
2022/03/13 02:08:43;;;;;;;5.40;4.50;;;;;;;;;;4991624;28;20561;-70
2022/03/13 02:11:08;;;;;;;5.33;4.30;;;;;;;;;;4986580;28;20286;-68
2022/03/13 02:13:34;;;;;;;4.87;3.90;;;;;;;;;;4992797;28;20186;-68
2022/03/13 02:15:59;;;;;;;4.37;3.70;;;;;;;;;;4990116;28;20611;-68
2022/03/13 02:18:24;;;;;;;4.50;4.03;;;;;;;;;;4993186;28;20207;-69
2022/03/13 02:23:20;;;;;;;6.13;4.70;;;;;;;;;;5007375;28;20253;-68
2022/03/13 02:25:52;;;;;;;7.53;5.13;;;;;;;;;;5010786;28;20266;-69
2022/03/13 02:28:19;;;;;;;6.30;5.23;;;;;;;;;;5012343;28;20625;-69
2022/03/13 02:30:44;;;;;;;6.03;5.20;;;;;;;;;;5008962;28;20645;-69
2022/03/13 02:33:09;;;;;;;5.53;4.83;;;;;;;;;;5010016;28;20190;-67
2022/03/13 02:35:34;;;;;;;6.37;5.10;;;;;;;;;;5010092;28;20171;-68
2022/03/13 02:38:00;;;;;;;5.80;4.57;;;;;;;;;;4996471;28;20591;-68
2022/03/13 02:40:25;;;;;;;5.63;4.67;;;;;;;;;;5006653;28;20556;-68
2022/03/13 02:42:50;;;;;;;5.43;4.50;;;;;;;;;;5000892;28;20575;-69
2022/03/13 02:45:32;;;;;;;6.83;4.53;;;;;;;;;;5004677;28;20179;-68
2022/03/13 02:47:58;;;;;;;6.57;4.53;;;;;;;;;;5006345;28;20571;-69
2022/03/13 02:50:24;;;;;;;6.13;4.80;;;;;;;;;;5007776;28;20216;-69
2022/03/13 02:52:49;;;;;;;6.97;5.23;;;;;;;;;;5006916;28;20194;-69
2022/03/13 02:55:14;;;;;;;5.80;4.83;;;;;;;;;;5007915;28;20267;-69
2022/03/13 02:57:40;;;;;;;5.30;4.77;;;;;;;;;;5010171;28;20179;-69
2022/03/13 03:00:05;;;;;;;6.30;4.83;;;;;;;;;;5004499;28;20187;-69
2022/03/13 03:02:31;;;;;;;7.87;5.20;;;;;;;;;;5008835;28;20199;-69
2022/03/13 03:04:56;;;;;;;8.03;5.87;;;;;;;;;;5006475;28;20178;-68
2022/03/13 03:07:21;;;;;;;7.43;5.13;;;;;;;;;;5011862;28;20199;-70
2022/03/13 03:09:46;;;;;;;7.37;5.57;;;;;;;;;;5012468;28;20183;-70
2022/03/13 03:12:11;;;;;;;6.43;5.70;;;;;;;;;;5012061;28;20202;-69
2022/03/13 03:14:37;;;;;;;7.23;6.10;;;;;;;;;;5010563;28;20189;-69
2022/03/13 03:17:02;;;;;;;7.57;5.77;;;;;;;;;;5011695;28;20209;-69
2022/03/13 03:19:28;;;;;;;8.33;6.30;;;;;;;;;;5015004;28;20198;-69
2022/03/13 03:21:54;;;;;;;9.07;6.87;;;;;;;;;;5019998;28;20215;-69
2022/03/13 03:24:23;;;;;;;8.47;6.30;;;;;;;;;;5017462;28;20586;-69
2022/03/13 03:26:48;;;;;;;7.17;6.37;;;;;;;;;;5017069;28;20203;-69
2022/03/13 03:29:14;;;;;;;9.80;6.63;;;;;;;;;;5016391;28;20190;-69
2022/03/13 03:31:41;;;;;;;8.50;6.50;;;;;;;;;;5014377;28;20207;-69
2022/03/13 03:34:13;;;;;;;8.33;6.47;;;;;;;;;;5013399;28;20175;-69
2022/03/13 03:36:46;;;;;;;12.07;6.43;;;;;;;;;;5014155;28;20258;-69
2022/03/13 03:39:12;;;;;;;8.60;6.30;;;;;;;;;;5013106;28;20190;-70
2022/03/13 03:41:37;;;;;;;7.20;5.97;;;;;;;;;;5012260;28;20194;-69
2022/03/13 03:44:02;;;;;;;7.17;6.40;;;;;;;;;;5006026;28;20175;-70
2022/03/13 03:46:27;;;;;;;7.43;5.77;;;;;;;;;;5007304;28;20199;-70
2022/03/13 03:48:53;;;;;;;10.83;6.63;;;;;;;;;;5008263;28;20214;-69
2022/03/13 03:51:18;;;;;;;8.20;5.60;;;;;;;;;;5004011;28;20435;-68
2022/03/13 03:53:43;;;;;;;8.73;6.60;;;;;;;;;;5009842;28;20194;-69
2022/03/13 03:56:08;;;;;;;7.13;5.77;;;;;;;;;;5005585;28;20184;-69
2022/03/13 03:58:33;;;;;;;7.80;5.97;;;;;;;;;;5011266;28;20197;-68
2022/03/13 04:00:59;;;;;;;7.80;5.00;;;;;;;;;;5005038;28;20175;-68
2022/03/13 04:03:25;;;;;;;7.93;5.87;;;;;;;;;;5013444;28;20669;-68
2022/03/13 04:05:50;;;;;;;8.50;6.00;;;;;;;;;;5008943;28;20182;-69
2022/03/13 04:08:15;;;;;;;9.87;6.53;;;;;;;;;;5011957;28;20562;-69
2022/03/13 04:10:40;;;;;;;7.43;5.40;;;;;;;;;;5007936;28;20179;-69
2022/03/13 04:13:06;;;;;;;6.33;5.40;;;;;;;;;;5010209;28;20219;-69
2022/03/13 04:15:31;;;;;;;8.07;4.87;;;;;;;;;;5011600;28;20596;-70
2022/03/13 04:17:56;;;;;;;8.60;6.00;;;;;;;;;;5019097;28;20724;-66
2022/03/13 04:20:21;;;;;;;6.80;5.47;;;;;;;;;;5010038;28;20201;-69
2022/03/13 04:22:47;;;;;;;6.60;5.63;;;;;;;;;;5011284;28;20318;-67
2022/03/13 04:25:12;;;;;;;7.30;5.27;;;;;;;;;;5012026;28;20190;-69
2022/03/13 04:27:37;;;;;;;6.47;5.30;;;;;;;;;;5011819;28;20653;-69
2022/03/13 04:30:03;;;;;;;6.63;5.40;;;;;;;;;;5011017;28;20185;-69
2022/03/13 04:32:29;;;;;;;6.87;5.23;;;;;;;;;;5006231;28;20199;-69
2022/03/13 04:34:54;;;;;;;6.33;5.60;;;;;;;;;;5015778;28;20655;-69
2022/03/13 04:37:22;;;;;;;7.47;5.70;;;;;;;;;;5008492;28;20179;-69
2022/03/13 04:39:51;;;;;;;8.27;5.97;;;;;;;;;;5010261;28;20201;-68
2022/03/13 04:42:16;;;;;;;8.53;5.77;;;;;;;;;;5004820;28;20823;-69
2022/03/13 04:44:42;;;;;;;6.67;5.53;;;;;;;;;;4998796;28;20258;-68
2022/03/13 04:47:07;;;;;;;6.67;5.47;;;;;;;;;;5005616;28;20193;-69
2022/03/13 04:49:33;;;;;;;8.17;6.07;;;;;;;;;;4992840;28;20544;-68
2022/03/13 04:51:58;;;;;;;7.97;6.37;;;;;;;;;;5011160;28;20222;-69
2022/03/13 04:54:23;;;;;;;8.70;6.10;;;;;;;;;;5008882;28;20189;-69
2022/03/13 04:56:48;;;;;;;9.47;6.87;;;;;;;;;;5013462;28;20218;-69
2022/03/13 04:59:14;;;;;;;7.47;6.07;;;;;;;;;;5010487;28;20183;-68
2022/03/13 05:01:39;;;;;;;8.97;6.83;;;;;;;;;;5011358;28;20198;-69
2022/03/13 05:04:08;;;;;;;8.20;6.63;;;;;;;;;;5008317;28;20743;-68
2022/03/13 05:06:35;;;;;;;12.17;8.53;;;;;;;;;;5010452;28;20572;-69
2022/03/13 05:09:01;;;;;;;10.63;9.03;;;;;;;;;;5011470;28;20300;-69
2022/03/13 05:11:26;;;;;;;12.40;8.73;;;;;;;;;;5006907;28;20688;-69
2022/03/13 05:13:51;;;;;;;11.47;9.30;;;;;;;;;;5005495;28;20241;-69
2022/03/13 05:16:16;;;;;;;15.00;9.93;;;;;;;;;;5013129;28;20262;-69
2022/03/13 05:18:41;;;;;;;16.27;11.07;;;;;;;;;;5009991;28;20509;-69
2022/03/13 05:21:07;;;;;;;15.17;11.00;;;;;;;;;;5012956;28;20264;-66
2022/03/13 05:23:32;;;;;;;18.40;11.07;;;;;;;;;;5010012;28;20609;-70
2022/03/13 05:25:57;;;;;;;13.93;10.97;;;;;;;;;;5010183;28;20179;-69
2022/03/13 05:28:22;;;;;;;13.97;11.33;;;;;;;;;;5011589;28;20702;-69
2022/03/13 05:30:48;;;;;;;15.50;11.90;;;;;;;;;;5003365;28;20182;-69
2022/03/13 05:33:13;;;;;;;15.17;12.17;;;;;;;;;;5012807;28;20382;-69
2022/03/13 05:35:38;;;;;;;16.97;11.67;;;;;;;;;;5009312;28;20213;-70
2022/03/13 05:38:03;;;;;;;16.37;11.97;;;;;;;;;;5012137;28;20236;-70
2022/03/13 05:40:29;;;;;;;16.00;10.83;;;;;;;;;;5007924;28;20178;-70
2022/03/13 05:42:58;;;;;;;16.30;11.97;;;;;;;;;;5007076;28;20692;-68
2022/03/13 05:45:25;;;;;;;15.70;12.13;;;;;;;;;;5000160;28;20253;-68
2022/03/13 05:47:51;;;;;;;17.80;12.33;;;;;;;;;;5004043;28;20268;-68
2022/03/13 05:50:17;;;;;;;16.80;12.30;;;;;;;;;;5007929;28;20649;-69
2022/03/13 05:52:43;;;;;;;19.20;13.63;;;;;;;;;;5007136;28;20672;-68
2022/03/13 05:55:09;;;;;;;19.40;12.60;;;;;;;;;;4997271;28;20187;-69
2022/03/13 05:57:34;;;;;;;20.87;13.03;;;;;;;;;;5004567;28;20190;-69
2022/03/13 06:00:00;;;;;;;17.60;12.80;;;;;;;;;;5009906;28;20186;-69
2022/03/13 06:02:25;;;;;;;17.50;12.37;;;;;;;;;;4995187;28;20212;-68
2022/03/13 06:04:51;;;;;;;17.80;13.50;;;;;;;;;;5007626;28;20183;-68
2022/03/13 06:07:17;;;;;;;19.77;13.83;;;;;;;;;;5010209;28;20209;-69
2022/03/13 06:09:42;;;;;;;16.37;12.33;;;;;;;;;;5010455;28;20179;-69
2022/03/13 06:12:08;;;;;;;18.63;13.37;;;;;;;;;;5007727;28;20702;-69
2022/03/13 06:14:33;;;;;;;15.63;12.00;;;;;;;;;;5008355;28;20171;-67
2022/03/13 06:16:59;;;;;;;17.37;13.50;;;;;;;;;;5011160;28;20237;-69
2022/03/13 06:19:24;;;;;;;17.97;13.40;;;;;;;;;;5007984;28;20731;-67
2022/03/13 06:21:49;;;;;;;20.67;13.80;;;;;;;;;;5008721;28;20297;-68
2022/03/13 06:24:16;;;;;;;17.23;12.60;;;;;;;;;;4991656;28;21122;-67
2022/03/13 06:26:41;;;;;;;17.90;13.17;;;;;;;;;;5009112;28;20286;-68
2022/03/13 06:29:07;;;;;;;16.10;12.43;;;;;;;;;;5009462;28;20660;-67
2022/03/13 06:31:32;;;;;;;17.90;13.37;;;;;;;;;;5010267;28;20205;-68
2022/03/13 06:33:57;;;;;;;17.77;12.73;;;;;;;;;;5008809;28;20205;-68
2022/03/13 06:36:23;;;;;;;20.27;13.00;;;;;;;;;;5005248;28;20559;-67
2022/03/13 06:38:48;;;;;;;20.17;13.50;;;;;;;;;;5010166;28;20174;-68
2022/03/13 06:41:13;;;;;;;18.60;13.07;;;;;;;;;;5013539;28;20571;-69
2022/03/13 06:43:39;;;;;;;18.83;13.40;;;;;;;;;;5011825;28;20649;-68
2022/03/13 06:46:04;;;;;;;20.03;14.03;;;;;;;;;;5012405;28;20217;-69
2022/03/13 06:48:31;;;;;;;18.27;14.27;;;;;;;;;;5012497;28;20210;-69
2022/03/13 06:50:56;;;;;;;17.60;13.43;;;;;;;;;;5013358;28;20171;-69
2022/03/13 06:53:22;;;;;;;19.53;14.30;;;;;;;;;;5013326;28;20171;-69
2022/03/13 06:55:47;;;;;;;18.20;13.57;;;;;;;;;;5017638;28;20191;-69
2022/03/13 06:58:12;;;;;;;19.77;13.57;;;;;;;;;;5013418;28;20194;-67
2022/03/13 07:00:37;;;;;;;17.80;13.33;;;;;;;;;;5012656;28;20179;-68
2022/03/13 07:03:03;;;;;;;17.87;14.40;;;;;;;;;;4999124;28;20225;-68
2022/03/13 07:05:28;;;;;;;16.87;13.63;;;;;;;;;;5006969;28;20191;-69
2022/03/13 07:07:54;;;;;;;19.03;13.53;;;;;;;;;;5009412;28;20217;-68
2022/03/13 07:10:20;;;;;;;19.87;14.20;;;;;;;;;;5013239;28;20175;-70
2022/03/13 07:12:45;;;;;;;17.60;13.40;;;;;;;;;;5012848;28;20210;-68
2022/03/13 07:15:12;;;;;;;18.57;12.83;;;;;;;;;;5013312;28;20183;-68
2022/03/13 07:17:37;;;;;;;19.83;15.57;;;;;;;;;;4982702;28;20266;-69
2022/03/13 07:20:03;;;;;;;16.77;13.03;;;;;;;;;;5006049;28;20221;-68
2022/03/13 07:22:28;;;;;;;16.97;14.10;;;;;;;;;;5009889;28;20700;-69
2022/03/13 07:24:54;;;;;;;18.57;12.57;;;;;;;;;;5012032;28;20186;-69
2022/03/13 07:27:19;;;;;;;16.30;12.30;;;;;;;;;;5011614;28;20350;-68
2022/03/13 07:29:44;;;;;;;17.60;13.63;;;;;;;;;;5011373;28;20351;-70
2022/03/13 07:32:09;;;;;;;16.17;13.07;;;;;;;;;;5017391;28;20286;-69
2022/03/13 07:34:34;;;;;;;17.77;13.87;;;;;;;;;;5007182;28;20587;-68
2022/03/13 07:37:00;;;;;;;21.80;15.00;;;;;;;;;;4996447;28;20553;-69
2022/03/13 07:39:25;;;;;;;17.60;13.27;;;;;;;;;;5001341;28;20187;-68
2022/03/13 07:41:51;;;;;;;16.30;13.60;;;;;;;;;;5005473;28;20311;-68
2022/03/13 07:44:16;;;;;;;16.90;13.20;;;;;;;;;;5005269;28;20187;-69
2022/03/13 07:46:42;;;;;;;21.53;14.20;;;;;;;;;;5005017;28;20249;-69
2022/03/13 07:49:07;;;;;;;19.43;12.87;;;;;;;;;;4997655;28;20217;-69
2022/03/13 07:51:34;;;;;;;16.17;12.60;;;;;;;;;;5002843;28;20187;-69
2022/03/13 07:53:59;;;;;;;17.87;12.47;;;;;;;;;;5010498;28;20182;-69
2022/03/13 07:56:25;;;;;;;18.30;12.90;;;;;;;;;;5010712;28;20181;-69
2022/03/13 07:58:50;;;;;;;16.60;13.37;;;;;;;;;;4994615;28;20175;-68
2022/03/13 08:01:15;;;;;;;18.77;13.30;;;;;;;;;;5005555;28;20301;-68
2022/03/13 08:03:44;;;;;;;15.13;12.37;;;;;;;;;;4995577;28;20175;-68
2022/03/13 08:06:09;;;;;;;17.40;13.87;;;;;;;;;;5005080;28;20639;-69
2022/03/13 08:08:34;;;;;;;18.87;13.40;;;;;;;;;;5010717;28;20199;-67
2022/03/13 08:11:00;;;;;;;15.97;12.83;;;;;;;;;;5001886;28;20269;-70
2022/03/13 08:13:25;;;;;;;15.37;13.03;;;;;;;;;;5006735;28;20711;-69
2022/03/13 08:15:50;;;;;;;18.37;14.67;;;;;;;;;;5010875;28;20377;-68
2022/03/13 08:18:15;;;;;;;20.03;13.97;;;;;;;;;;5007551;28;20210;-67
2022/03/13 08:20:40;;;;;;;15.57;12.90;;;;;;;;;;5007402;28;20179;-68
2022/03/13 08:23:06;;;;;;;18.60;13.33;;;;;;;;;;5029353;23;20675;-70
2022/03/13 08:25:31;;;;;;;16.87;13.53;;;;;;;;;;5023837;28;20668;-69
2022/03/13 08:27:56;;;;;;;15.87;13.27;;;;;;;;;;5013248;28;20677;-69
2022/03/13 08:30:22;;;;;;;20.90;14.20;;;;;;;;;;5014274;28;20247;-69
2022/03/13 08:32:48;;;;;;;15.90;13.17;;;;;;;;;;5018050;28;20221;-69
2022/03/13 08:35:13;;;;;;;16.20;13.70;;;;;;;;;;5023939;28;20186;-71
2022/03/13 08:37:38;;;;;;;17.27;14.07;;;;;;;;;;5022358;28;20198;-68
2022/03/13 08:40:04;;;;;;;14.83;12.40;;;;;;;;;;5034231;28;20196;-69
2022/03/13 08:42:30;;;;;;;20.92;14.20;;;;;;;;;;5034821;28;20284;-70
2022/03/13 08:44:56;;;;;;;15.57;13.00;;;;;;;;;;5021957;28;20189;-69
2022/03/13 08:47:21;;;;;;;16.60;14.00;;;;;;;;;;5024338;28;20206;-69
2022/03/13 08:49:46;;;;;;;18.75;14.35;;;;;;;;;;5024095;28;20190;-69
2022/03/13 08:52:11;;;;;;;17.48;13.63;;;;;;;;;;5022942;28;20280;-70
2022/03/13 08:54:37;;;;;;;19.50;14.20;;;;;;;;;;5022191;28;20175;-69
2022/03/13 08:57:02;;;;;;;18.92;13.75;;;;;;;;;;5014722;28;20183;-69
2022/03/13 08:59:30;;;;;;;17.45;14.35;;;;;;;;;;5023070;28;20196;-69
2022/03/13 09:01:55;;;;;;;16.30;13.77;;;;;;;;;;5023239;28;20205;-69
2022/03/13 09:04:20;;;;;;;16.75;13.43;;;;;;;;;;5024456;28;20178;-70
2022/03/13 09:06:46;;;;;;;17.67;12.77;;;;;;;;;;5033005;28;20740;-69
2022/03/13 09:09:12;;;;;;;16.52;13.82;;;;;;;;;;5010675;28;20182;-69
2022/03/13 09:11:37;;;;;;;20.33;14.82;;;;;;;;;;5012560;28;20202;-71
2022/03/13 09:14:04;;;;;;;15.18;13.57;;;;;;;;;;5020103;28;20179;-71
2022/03/13 09:16:32;;;;;;;19.33;13.55;;;;;;;;;;5022622;28;20474;-70
2022/03/13 09:18:57;;;;;;;18.10;14.35;;;;;;;;;;5023011;28;20178;-69
2022/03/13 09:21:23;;;;;;;19.40;15.00;;;;;;;;;;5025199;28;20607;-70
2022/03/13 09:23:48;;;;;;;17.50;14.32;;;;;;;;;;5021717;28;20280;-70
2022/03/13 09:26:14;;;;;;;17.35;13.38;;;;;;;;;;5021526;28;20265;-70
2022/03/13 09:28:39;;;;;;;17.60;14.23;;;;;;;;;;4999411;28;20238;-69
2022/03/13 09:31:06;;;;;;;16.23;13.75;;;;;;;;;;5016576;28;20234;-70
2022/03/13 09:33:31;;;;;;;17.05;14.48;;;;;;;;;;5012359;28;20202;-67
2022/03/13 09:35:56;;;;;;;18.60;14.00;;;;;;;;;;5021650;28;20180;-69
2022/03/13 09:38:22;;;;;;;18.13;14.07;;;;;;;;;;5022581;28;20434;-69
2022/03/13 09:40:47;;;;;;;16.13;13.43;;;;;;;;;;5021310;28;20189;-68
2022/03/13 09:43:12;;;;;;;16.27;13.57;;;;;;;;;;5020301;28;20256;-68
2022/03/13 09:45:37;;;;;;;19.05;13.63;;;;;;;;;;5018225;28;20540;-68
2022/03/13 09:48:03;;;;;;;19.50;14.07;;;;;;;;;;5019832;28;20293;-68
2022/03/13 09:50:29;;;;;;;16.45;14.70;;;;;;;;;;5020192;28;20170;-67
2022/03/13 09:52:54;;;;;;;16.50;13.52;;;;;;;;;;5018787;28;20281;-68
2022/03/13 09:55:20;;;;;;;17.48;13.95;;;;;;;;;;5010579;28;20248;-67
2022/03/13 09:57:48;;;;;;;15.38;13.10;;;;;;;;;;5027981;28;20225;-67
2022/03/13 10:00:14;;;;;;;15.75;13.73;;;;;;;;;;5026345;28;20616;-68
2022/03/13 10:02:39;;;;;;;17.02;12.73;;;;;;;;;;5022703;28;20202;-68
2022/03/13 10:05:15;;;;;;;16.35;13.10;;;;;;;;;;5016409;28;20663;-67
2022/03/13 10:07:59;;;;;;;18.20;14.00;;;;;;;;;;5020042;28;20601;-68
2022/03/13 10:10:45;;;;;;;15.20;13.25;;;;;;;;;;5020113;28;20239;-68
2022/03/13 10:13:10;;;;;;;16.48;12.52;;;;;;;;;;5021546;28;20698;-68
2022/03/13 10:15:39;;;;;;;16.00;12.77;;;;;;;;;;5019785;28;20278;-69
2022/03/13 10:18:31;;;;;;;19.50;13.35;;;;;;;;;;5021822;28;20659;-67
2022/03/13 10:20:56;;;;;;;18.02;13.75;;;;;;;;;;5020057;28;20737;-68
2022/03/13 10:23:22;;;;;;;14.23;12.20;;;;;;;;;;5020698;28;20294;-68
2022/03/13 10:25:51;;;;;;;17.80;14.20;;;;;;;;;;5021684;28;20178;-68
2022/03/13 10:28:19;;;;;;;17.17;13.38;;;;;;;;;;5019000;28;20202;-68
2022/03/13 10:31:08;;;;;;;16.90;13.52;;;;;;;;;;5020019;28;20193;-69
2022/03/13 10:33:42;;;;;;;13.88;12.38;;;;;;;;;;5011253;28;20309;-67
2022/03/13 10:36:14;;;;;;;20.70;13.43;;;;;;;;;;5021171;28;20249;-67
2022/03/13 10:38:40;;;;;;;13.77;12.32;;;;;;;;;;4988633;28;20240;-67
2022/03/13 10:41:09;;;;;;;16.00;13.07;;;;;;;;;;5021891;28;20198;-68
2022/03/13 10:43:37;;;;;;;18.42;13.57;;;;;;;;;;5018363;28;20221;-68
2022/03/13 10:46:04;;;;;;;18.13;14.02;;;;;;;;;;5021821;28;20631;-69
2022/03/13 10:48:36;;;;;;;13.93;12.35;;;;;;;;;;5016493;28;20703;-68
2022/03/13 10:51:03;;;;;;;15.25;13.43;;;;;;;;;;5027177;28;20182;-67
2022/03/13 10:53:29;;;;;;;13.65;12.20;;;;;;;;;;5018786;28;20202;-68
2022/03/13 10:56:00;;;;;;;15.43;12.90;;;;;;;;;;5017866;28;20560;-67
2022/03/13 10:58:30;;;;;;;16.65;13.38;;;;;;;;;;5009887;28;20270;-69
2022/03/13 11:01:09;;;;;;;14.57;12.00;;;;;;;;;;5019391;28;20671;-69
2022/03/13 11:03:35;;;;;;;14.77;13.07;;;;;;;;;;5019157;28;20206;-70
2022/03/13 11:06:01;;;;;;;15.27;12.68;;;;;;;;;;5030540;28;20179;-68
2022/03/13 11:08:26;;;;;;;13.48;11.88;;;;;;;;;;5018765;28;20305;-68
2022/03/13 11:10:52;;;;;;;13.77;12.18;;;;;;;;;;5020236;28;20531;-69
2022/03/13 11:13:20;;;;;;;13.65;12.18;;;;;;;;;;5018401;28;20217;-68
2022/03/13 11:15:47;;;;;;;14.27;12.80;;;;;;;;;;5022197;28;20225;-68
2022/03/13 11:18:14;;;;;;;19.83;12.13;;;;;;;;;;5010275;28;20179;-70
2022/03/13 11:20:39;;;;;;;13.30;11.82;;;;;;;;;;5004562;28;21071;-68
2022/03/13 11:23:08;;;;;;;13.07;11.20;;;;;;;;;;5004466;28;20301;-69
2022/03/13 11:25:34;;;;;;;13.25;11.75;;;;;;;;;;5005662;28;20236;-68
2022/03/13 11:27:59;;;;;;;14.90;12.32;;;;;;;;;;5009672;28;20921;-68
2022/03/13 11:30:32;;;;;;;14.07;11.73;;;;;;;;;;5007490;28;20178;-69
2022/03/13 11:32:59;;;;;;;13.23;11.82;;;;;;;;;;5009074;28;20209;-68
2022/03/13 11:35:25;;;;;;;14.13;12.48;;;;;;;;;;5008112;28;20181;-68
2022/03/13 11:38:11;;;;;;;12.50;11.25;;;;;;;;;;5009191;28;20179;-69
2022/03/13 11:40:38;;;;;;;13.30;11.90;;;;;;;;;;4999228;28;20198;-70
2022/03/13 11:43:16;;;;;;;14.02;11.90;;;;;;;;;;5009954;28;20202;-68
2022/03/13 11:45:52;;;;;;;14.15;11.68;;;;;;;;;;5010221;28;20251;-69
2022/03/13 11:50:54;;;;;;;15.30;12.57;;;;;;;;;;5010545;28;20236;-69
2022/03/13 11:53:44;;;;;;;15.57;12.60;;;;;;;;;;5012340;28;20198;-69
2022/03/13 11:56:10;;;;;;;13.95;12.45;;;;;;;;;;5000865;28;20244;-68
2022/03/13 11:58:52;;;;;;;14.63;13.05;;;;;;;;;;5009421;28;20603;-68
2022/03/13 12:01:37;;;;;;;17.80;12.88;;;;;;;;;;5009743;28;21580;-68
2022/03/13 12:06:48;;;;;;;14.25;12.23;;;;;;;;;;5007879;28;20266;-69
2022/03/13 12:09:17;;;;;;;15.18;12.30;;;;;;;;;;5009295;28;20262;-69
2022/03/13 12:11:45;;;;;;;14.48;11.80;;;;;;;;;;5008780;28;20202;-68
2022/03/13 12:14:12;;;;;;;14.73;12.18;;;;;;;;;;5008343;28;20183;-69
2022/03/13 12:16:38;;;;;;;13.30;11.52;;;;;;;;;;5009568;28;20658;-69
2022/03/13 12:19:04;;;;;;;14.27;11.88;;;;;;;;;;5009041;28;20273;-68
2022/03/13 12:21:29;;;;;;;12.85;11.52;;;;;;;;;;5011421;28;20186;-70
2022/03/13 12:23:58;;;;;;;14.50;11.18;;;;;;;;;;5009681;28;20288;-68
2022/03/13 12:26:36;;;;;;;12.57;11.00;;;;;;;;;;5008601;28;20181;-68
2022/03/13 12:29:01;;;;;;;12.13;10.38;;;;;;;;;;5014384;28;20252;-69
2022/03/13 12:31:26;;;;;;;13.65;10.35;;;;;;;;;;5018698;28;20643;-69
2022/03/13 12:33:53;;;;;;;13.55;10.38;;;;;;;;;;5010037;28;20206;-70
2022/03/13 12:36:19;;;;;;;11.77;10.57;;;;;;;;;;5007940;28;20182;-69
2022/03/13 12:38:48;;;;;;;12.80;11.15;;;;;;;;;;5008754;28;20244;-68
2022/03/13 12:41:13;;;;;;;12.40;10.82;;;;;;;;;;5009287;28;20182;-69
2022/03/13 12:43:52;;;;;;;13.20;10.43;;;;;;;;;;5007156;28;20528;-68
2022/03/13 12:46:18;;;;;;;12.15;9.20;;;;;;;;;;5008323;28;20675;-69
2022/03/13 12:48:54;;;;;;;11.60;10.07;;;;;;;;;;5000283;28;20802;-68
2022/03/13 12:51:49;;;;;;;11.88;10.52;;;;;;;;;;5007409;28;20261;-69
2022/03/13 12:54:15;;;;;;;14.48;9.70;;;;;;;;;;4991494;28;20194;-69
2022/03/13 12:56:47;;;;;;;11.65;9.55;;;;;;;;;;5008918;28;20178;-70
2022/03/13 12:59:23;;;;;;;12.50;10.30;;;;;;;;;;5008332;28;21214;-70
2022/03/13 13:02:04;;;;;;;12.15;9.65;;;;;;;;;;5010789;28;20194;-68
2022/03/13 13:04:29;;;;;;;10.38;8.82;;;;;;;;;;5008067;28;20628;-70
2022/03/13 13:06:54;;;;;;;9.63;8.60;;;;;;;;;;5008673;28;20206;-68
2022/03/13 13:09:28;;;;;;;11.13;9.00;;;;;;;;;;4997700;28;20201;-70
2022/03/13 13:11:53;;;;;;;9.45;8.45;;;;;;;;;;4996847;28;20575;-69
2022/03/13 13:14:22;;;;;;;10.43;9.30;;;;;;;;;;5007758;28;20182;-69
2022/03/13 13:16:47;;;;;;;13.52;8.95;;;;;;;;;;5008211;28;20848;-68
2022/03/13 13:19:12;;;;;;;11.50;8.67;;;;;;;;;;5010917;28;20285;-70
2022/03/13 13:21:40;;;;;;;10.07;9.07;;;;;;;;;;5007896;28;20454;-68
2022/03/13 13:24:28;;;;;;;9.63;8.73;;;;;;;;;;5008954;28;20193;-70
2022/03/13 13:26:53;;;;;;;11.45;8.65;;;;;;;;;;5010546;28;20288;-70
2022/03/13 13:29:31;;;;;;;11.10;9.45;;;;;;;;;;5007794;28;20172;-70
2022/03/13 13:32:15;;;;;;;9.15;8.25;;;;;;;;;;5008247;28;20564;-69
2022/03/13 13:34:41;;;;;;;10.07;8.25;;;;;;;;;;5008395;28;20189;-69
2022/03/13 13:37:07;;;;;;;9.52;8.52;;;;;;;;;;5008049;28;20545;-69
2022/03/13 13:39:32;;;;;;;8.88;7.95;;;;;;;;;;5008461;28;20193;-69
2022/03/13 13:41:58;;;;;;;11.18;8.25;;;;;;;;;;5004615;28;20328;-69
2022/03/13 13:44:29;;;;;;;10.07;8.43;;;;;;;;;;5008673;28;20204;-69
2022/03/13 13:47:03;;;;;;;10.07;9.02;;;;;;;;;;5007205;28;20238;-69
2022/03/13 13:49:28;;;;;;;11.45;8.45;;;;;;;;;;5011335;28;20181;-69
2022/03/13 13:52:08;;;;;;;8.82;7.90;;;;;;;;;;5006076;28;20201;-68
2022/03/13 13:54:35;;;;;;;10.27;8.50;;;;;;;;;;5011717;28;20231;-68
2022/03/13 13:57:02;;;;;;;8.52;7.70;;;;;;;;;;5006848;28;20183;-70
2022/03/13 13:59:45;;;;;;;9.68;8.15;;;;;;;;;;5006972;28;20182;-69
2022/03/13 14:02:13;;;;;;;8.13;7.32;;;;;;;;;;5007194;28;20268;-68
2022/03/13 14:04:42;;;;;;;11.82;8.93;;;;;;;;;;5007391;28;20194;-70
2022/03/13 14:07:08;;;;;;;11.70;8.57;;;;;;;;;;5006715;28;21518;-69
2022/03/13 14:09:35;;;;;;;10.05;8.02;;;;;;;;;;5006933;28;20921;-68
2022/03/13 14:12:00;;;;;;;11.45;8.55;;;;;;;;;;5006229;28;20318;-71
2022/03/13 14:14:26;;;;;;;9.13;8.18;;;;;;;;;;5006775;28;20178;-70
2022/03/13 14:16:51;;;;;;;9.00;7.85;;;;;;;;;;5007844;28;20218;-68
2022/03/13 14:19:16;;;;;;;8.98;7.75;;;;;;;;;;5011675;28;20197;-68
2022/03/13 14:24:16;;;;;;;9.25;7.30;;;;;;;;;;5013519;28;20253;-68
2022/03/13 14:26:42;;;;;;;7.97;6.93;;;;;;;;;;5017008;28;20261;-68
2022/03/13 14:29:08;;;;;;;10.68;7.03;;;;;;;;;;5016788;28;20184;-68
2022/03/13 14:31:33;;;;;;;7.65;6.88;;;;;;;;;;5017292;28;20177;-68
2022/03/13 14:33:58;;;;;;;6.85;6.10;;;;;;;;;;5018354;28;20209;-68
2022/03/13 14:36:24;;;;;;;6.73;6.13;;;;;;;;;;5017348;28;20202;-68
2022/03/13 14:38:49;;;;;;;6.28;5.63;;;;;;;;;;5016684;28;20426;-67